KRDM/RDM METAR and TAF weather

Enter ICAO airport designator
Station Type Date Time Source
KRDM METAR 2019/06/26 05:56 UTC NOAA

KRDM 260556Z AUTO 00000KT 10SM CLR 12/08 A2991 RMK AO2 RAE0458 SLP113 P0000 60005 T01220083 10239 20100 52019


Station Type Date Time Source
KRDM Decoded METAR 2019/06/26 05:56 UTC NOAA

REDMOND ROBERTS FIELD, OR, United States (KRDM) 44-15N 121-08W
Jun 26, 2019 - 01:56 AM EDT / 2019.06.26 0556 UTC
Wind: Calm:0
Visibility: 10 mile(s):0
Sky conditions: clear
Precipitation last hour: A trace
Temperature: 54.0 F (12.2 C)
Dew Point: 46.9 F (8.3 C)
Relative Humidity: 77%
Pressure (altimeter): 29.91 in. Hg (1012 hPa)
Pressure tendency: 0.06 inches (1.9 hPa) higher than three hours ago
ob: KRDM 260556Z AUTO 00000KT 10SM CLR 12/08 A2991 RMK AO2 RAE0458 SLP113 P0000 60005 T01220083 10239 20100 52019
cycle: 6

Station Type Date Time Source
KRDM TAF 2019/06/26 06:24 UTC NOAA

TAF KRDM 260520Z 2606/2706 VRB05KT P6SM VCTS SCT045CB BKN070 OVC100
FM260900 VRB05KT P6SM FEW040 SCT060 BKN080
FM261800 32008G18KT P6SM VCTS SCT050CB OVC070
FM270300 31007G13KT P6SM VCTS SCT040CB OVC060

Example: see airport list